Flight Track Log - Related Links

Times and Time Zones

All times are in EDT time to prevent confusion due to time zone crossing. See the SWA8500 flight status page for this flight to view local times or setup timezone preferences in your user account.

Time Position Orientation Groundspeed Altitude Reporting Facility
EDT Latitude Longitude Course Direction KTS MPH feet Rate Location/Type
Tue 11:04:49 AM 36.0753 -115.1550 270° West 136 157 3,300  Level Los Angeles Center
Tue 11:05:32 AM 36.0750 -115.2031 270° West 180 207 4,600 1,970 Climbing Los Angeles Center
Tue 11:05:56 AM 36.0769 -115.2292 275° West 211 243 5,500 3,182 Climbing Los Angeles Center
Tue 11:06:38 AM 36.0953 -115.2869 291° West 257 296 8,100 3,677 Climbing Los Angeles Center
Tue 11:06:58 AM 36.1164 -115.2908 352° North 245 282 9,300 3,659 Climbing Los Angeles Center
Tue 11:08:00 AM 36.1736 -115.2481 31° Northeast 267 307 13,100 3,048 Climbing Los Angeles Center
Tue 11:09:02 AM 36.1958 -115.1375 76° East 348 400 15,600 3,097 Climbing Los Angeles Center
Tue 11:10:04 AM 36.1972 -115.0056 89° East 383 441 19,500 3,968 Climbing Los Angeles Center
Tue 11:11:06 AM 36.1992 -114.8372 89° East 406 467 23,800 3,532 Climbing Los Angeles Center
Tue 11:12:08 AM 36.2625 -114.7219 56° Northeast 424 488 26,800 2,710 Climbing Los Angeles Center
Tue 11:13:10 AM 36.3572 -114.6319 37° Northeast 430 495 29,400 2,468 Climbing Los Angeles Center
Tue 11:14:12 AM 36.4547 -114.5397 37° Northeast 440 506 31,900 1,728 Climbing Los Angeles Center
Tue 11:15:15 AM 36.5536 -114.4467 37° Northeast 446 513 33,000 528 Climbing Los Angeles Center
Tue 11:16:17 AM 36.6597 -114.3672 31° Northeast 445 512 33,000 1,355 Level Los Angeles Center
Tue 11:17:19 AM 36.7853 -114.2686 32° Northeast 445 512 35,800 1,935 Climbing Los Angeles Center
Tue 11:18:21 AM 36.8872 -114.1892 32° Northeast 436 502 37,000 581 Climbing Los Angeles Center
Tue 11:19:23 AM 36.9881 -114.1114 32° Northeast 429 494 37,000  Level Los Angeles Center
Tue 11:20:25 AM 37.0889 -114.0322 32° Northeast 429 494 37,000  Level Los Angeles Center
Tue 11:21:12 AM 37.1731 -113.9675 31° Northeast 429 494 37,000  Level Salt Lake Center
Tue 11:22:14 AM 37.2739 -113.8883 32° Northeast 427 491 37,000  Level Salt Lake Center
Tue 11:23:16 AM 37.3744 -113.8089 32° Northeast 427 491 37,000  Level Salt Lake Center
Tue 11:24:18 AM 37.4753 -113.7275 33° Northeast 428 493 37,000  Level Salt Lake Center
Tue 11:25:20 AM 37.5975 -113.6308 32° Northeast 431 496 37,000  Level Salt Lake Center
Tue 11:26:22 AM 37.7000 -113.5489 32° Northeast 433 498 37,000  Level Salt Lake Center
Tue 11:27:23 AM 37.8108 -113.5225 11° North 409 471 37,000 146 Level Salt Lake Center
Tue 11:28:25 AM 37.9050 -113.5900 331° Northwest 389 448 37,300 1,355 Climbing Salt Lake Center
Tue 11:29:27 AM 37.9942 -113.6689 325° Northwest 392 451 39,800 1,790 Climbing Salt Lake Center
Tue 11:30:29 AM 38.0808 -113.7453 325° Northwest 381 438 41,000 581 Climbing Salt Lake Center
Tue 11:31:31 AM 38.1669 -113.8206 326° Northwest 378 435 41,000  Level Salt Lake Center
Tue 11:32:33 AM 38.2544 -113.8983 325° Northwest 382 440 41,000  Level Salt Lake Center
Tue 11:33:34 AM 38.3592 -113.9917 325° Northwest 383 441 41,000  Level Salt Lake Center
Tue 11:34:36 AM 38.4469 -114.0700 325° Northwest 384 442 41,000  Level Salt Lake Center
Tue 11:35:38 AM 38.5339 -114.1492 325° Northwest 385 443 41,000  Level Salt Lake Center
Tue 11:36:40 AM 38.6225 -114.2292 325° Northwest 389 448 41,000  Level Salt Lake Center
Tue 11:37:42 AM 38.7106 -114.3081 325° Northwest 388 447 41,000  Level Salt Lake Center
Tue 11:38:44 AM 38.7992 -114.3875 325° Northwest 388 447 41,000  Level Salt Lake Center
Tue 11:39:46 AM 38.9036 -114.4847 324° Northwest 387 445 41,000  Level Salt Lake Center
Tue 11:40:47 AM 38.9900 -114.5633 325° Northwest 382 440 41,000  Level Salt Lake Center
Tue 11:41:49 AM 39.0756 -114.6419 325° Northwest 378 435 41,000  Level Salt Lake Center
Tue 11:42:51 AM 39.1744 -114.6981 336° Northwest 380 437 41,000  Level Salt Lake Center
Tue 11:43:53 AM 39.2806 -114.7022 358° North 394 453 41,000  Level Salt Lake Center
Tue 11:44:55 AM 39.4019 -114.7081 358° North 392 451 41,000  Level Salt Lake Center
Tue 11:45:57 AM 39.5067 -114.7108 359° North 394 453 41,000  Level Salt Lake Center
Tue 11:46:59 AM 39.6267 -114.7172 358° North 386 444 41,000  Level Salt Lake Center
Tue 11:48:01 AM 39.7306 -114.7214 358° North 381 438 41,000  Level Salt Lake Center
Tue 11:49:02 AM 39.8361 -114.7272 358° North 380 437 41,000  Level Salt Lake Center
Tue 11:50:04 AM 39.9419 -114.7325 358° North 380 437 41,000  Level Salt Lake Center
Tue 11:51:06 AM 40.0489 -114.7378 358° North 383 441 41,000  Level Salt Lake Center
Tue 11:52:08 AM 40.1558 -114.7422 358° North 384 442 41,000  Level Salt Lake Center
Tue 11:53:10 AM 40.2853 -114.7494 358° North 386 444 41,000  Level Salt Lake Center
Tue 11:54:12 AM 40.3911 -114.7547 358° North 383 441 41,000  Level Salt Lake Center
Tue 11:55:14 AM 40.4969 -114.7583 359° North 381 438 41,000  Level Salt Lake Center
Tue 11:56:15 AM 40.6036 -114.7650 357° North 382 440 41,000  Level Salt Lake Center
Tue 11:57:17 AM 40.7100 -114.7703 358° North 383 441 41,000  Level Salt Lake Center
Tue 11:58:19 AM 40.8297 -114.7764 358° North 381 438 41,000  Level Salt Lake Center
Tue 11:59:21 AM 40.9286 -114.7808 358° North 375 432 41,000  Level Salt Lake Center
Tue 12:00:23 PM 41.0464 -114.7867 358° North 380 437 41,000  Level Salt Lake Center
Tue 12:01:24 PM 41.1544 -114.7922 358° North 385 443 41,000  Level Salt Lake Center
Tue 12:02:26 PM 41.2644 -114.7975 358° North 390 449 41,000  Level Salt Lake Center
Tue 12:03:28 PM 41.3767 -114.8047 357° North 399 459 41,000  Level Salt Lake Center
Tue 12:04:29 PM 41.4900 -114.8094 358° North 406 467 41,000  Level Salt Lake Center
Tue 12:05:31 PM 41.6181 -114.8167 358° North 413 475 41,000  Level Salt Lake Center
Tue 12:06:33 PM 41.7289 -114.8217 358° North 415 478 41,000  Level Salt Lake Center
Tue 12:07:35 PM 41.8575 -114.8311 357° North 416 479 41,000  Level Salt Lake Center
Tue 12:08:36 PM 41.9689 -114.8375 358° North 418 481 41,000  Level Salt Lake Center
Tue 12:09:38 PM 42.0794 -114.8411 359° North 416 479 41,000  Level Salt Lake Center
Tue 12:10:39 PM 42.2031 -114.8456 358° North 408 470 41,000  Level Salt Lake Center
Tue 12:11:41 PM 42.3181 -114.8511 358° North 412 474 41,000  Level Salt Lake Center
Tue 12:12:43 PM 42.4339 -114.8594 357° North 416 479 41,000  Level Salt Lake Center
Tue 12:13:44 PM 42.5472 -114.8653 358° North 411 473 41,000  Level Salt Lake Center
Tue 12:14:46 PM 42.6764 -114.8722 358° North 411 473 41,000  Level Salt Lake Center
Tue 12:15:48 PM 42.7792 -114.9047 347° North 401 461 41,000  Level Salt Lake Center
Tue 12:16:49 PM 42.8908 -114.9650 338° Northwest 388 447 41,000  Level Salt Lake Center
Tue 12:18:00 PM 43.0116 -115.0137 340° North  Level FlightAware Approximate
Tue 12:18:53 PM 43.1033 -115.0753 340° North 395 455 41,000  Level Salt Lake Center
Tue 12:19:54 PM 43.2014 -115.1281 339° North 396 456 41,000  Level Salt Lake Center
Tue 12:20:56 PM 43.2997 -115.1794 339° North 394 453 41,000  Level Salt Lake Center
Tue 12:21:58 PM 43.4144 -115.2414 339° North 396 456 41,000  Level Salt Lake Center
Tue 12:22:59 PM 43.5142 -115.2939 339° North 400 460 41,000  Level Salt Lake Center
Tue 12:24:01 PM 43.6300 -115.3553 339° North 401 461 41,000  Level Salt Lake Center
Tue 12:25:03 PM 43.7286 -115.4075 339° North 395 455 41,000  Level Salt Lake Center
Tue 12:26:04 PM 43.8442 -115.4706 339° North 399 459 41,000  Level Salt Lake Center
Tue 12:27:06 PM 43.9439 -115.5242 339° North 401 461 41,000  Level Salt Lake Center
Tue 12:28:08 PM 44.0433 -115.5778 339° North 401 461 41,000  Level Salt Lake Center
Tue 12:29:09 PM 44.1592 -115.6408 339° North 401 461 41,000  Level Salt Lake Center
Tue 12:30:11 PM 44.2594 -115.6947 339° North 403 464 41,000  Level Salt Lake Center
Tue 12:31:13 PM 44.3772 -115.7603 338° Northwest 408 470 41,000  Level Salt Lake Center
Tue 12:32:15 PM 44.4775 -115.8158 338° Northwest 410 472 41,000  Level Salt Lake Center
Tue 12:33:16 PM 44.5956 -115.8817 338° Northwest 413 475 41,000  Level Salt Lake Center
Tue 12:34:18 PM 44.6967 -115.9386 338° Northwest 412 474 41,000  Level Salt Lake Center
Tue 12:35:20 PM 44.8156 -116.0044 339° North 412 474 41,000  Level Salt Lake Center
Tue 12:36:21 PM 44.9164 -116.0614 338° Northwest 411 473 41,000  Level Salt Lake Center
Tue 12:37:23 PM 45.0350 -116.1286 338° Northwest 411 473 41,000  Level Salt Lake Center
Tue 12:38:25 PM 45.1372 -116.1856 339° North 412 474 41,000  Level Salt Lake Center
Tue 12:39:27 PM 45.2547 -116.2533 338° Northwest 409 471 41,000  Level Salt Lake Center
Tue 12:40:28 PM 45.3542 -116.3108 338° Northwest 406 467 41,000  Level Salt Lake Center
Tue 12:41:08 PM 45.4225 -116.3469 340° North 407 468 41,000  Level Seattle Center
Tue 12:42:09 PM 45.5228 -116.4061 338° Northwest 406 467 41,000  Level Seattle Center
Tue 12:43:09 PM 45.6408 -116.4739 338° Northwest 408 470 41,000  Level Seattle Center
Tue 12:44:10 PM 45.7417 -116.5322 338° Northwest 409 471 41,000  Level Seattle Center
Tue 12:45:11 PM 45.8600 -116.5994 338° Northwest 410 472 41,000  Level Seattle Center
Tue 12:46:12 PM 45.9622 -116.6608 337° Northwest 412 474 41,000 -1,230 Level Seattle Center
Tue 12:47:13 PM 46.0664 -116.7208 338° Northwest 419 482 38,500 -2,459 Descending Seattle Center
Tue 12:48:14 PM 46.1853 -116.7911 338° Northwest 417 480 36,000 -1,820 Descending Seattle Center
Tue 12:49:15 PM 46.2867 -116.8494 338° Northwest 411 473 34,800 -2,213 Descending Seattle Center
Tue 12:50:16 PM 46.3869 -116.9114 337° Northwest 407 468 31,500 -3,074 Descending Seattle Center
Tue 12:51:16 PM 46.4961 -116.9753 338° Northwest 395 455 28,600 -2,678 Descending Seattle Center
Tue 12:52:17 PM 46.5897 -117.0339 337° Northwest 375 432 26,100 -2,410 Descending Seattle Center
Tue 12:53:18 PM 46.6781 -117.0861 338° Northwest 352 405 23,700 -2,262 Descending Seattle Center
Tue 12:54:19 PM 46.7608 -117.1350 338° Northwest 329 379 21,500 -2,213 Descending Seattle Center
Tue 12:55:20 PM 46.8450 -117.1858 338° Northwest 327 376 19,200 -2,262 Descending Seattle Center
Tue 12:56:21 PM 46.9397 -117.2422 338° Northwest 335 386 16,900 -2,115 Descending Seattle Center
Tue 12:57:22 PM 47.0214 -117.2844 341° North 315 362 14,900 -1,537 Descending Seattle Center
Tue 12:58:22 PM 47.1097 -117.3017 352° North 322 371 13,800 -1,736 Descending Seattle Center
Tue 12:59:23 PM 47.1986 -117.3225 351° North 302 348 11,400 -1,820 Descending Seattle Center
Tue 01:00:24 PM 47.2811 -117.3392 352° North 301 346 10,100 -1,279 Descending Seattle Center
Tue 01:01:25 PM 47.3569 -117.3578 351° North 282 325 8,800 -1,377 Descending Seattle Center
Tue 01:02:26 PM 47.4297 -117.3747 351° North 268 308 7,300 -1,377 Descending Seattle Center
Tue 01:03:27 PM 47.4981 -117.3419 18° North 261 300 6,000 -639 Descending Seattle Center
Tue 01:04:28 PM 47.5689 -117.3053 19° North 254 292 6,000 -197 Level Seattle Center
Tue 01:05:29 PM 47.6297 -117.2942 North 229 264 5,600 -197 Descending Seattle Center
Tue 01:06:30 PM 47.6881 -117.2947 360° North 213 245 5,600 -344 Level Seattle Center
Tue 01:07:31 PM 47.7181 -117.3500 309° West 196 226 4,900 -689 Descending Seattle Center
Tue 01:08:32 PM 47.7019 -117.4169 250° West 186 214 4,200 -639 Descending Seattle Center
Tue 01:09:33 PM 47.6722 -117.4578 223° Southwest 150 173 3,600 -639 Descending Seattle Center
Tue 01:10:34 PM 47.6489 -117.4925 225° Southwest 126 145 2,900 -639 Descending Seattle Center
Tue 01:11:35 PM 47.6275 -117.5247 225° Southwest 120 138 2,300 -590 Descending Seattle Center
Tue 01:13:00 PM 47.6167 -117.5333 270° West  Level FlightAware Approximate

Login

Don't have an account? Register now (free) for customized features, flight alerts, and more!